METAR AND TAF INFORMATION
METAR FOR UAOO
ADDS - METARS form results

(1235 UTC 23 January 2019)
Data provider http://aviationweather.gov/metar/data/
 
METAR text: UAOO 231200Z 00000MPS 9999 BKN040 01/M05 Q1024 R05/CLRD70 NOSIG RMK QFE757/1009
Conditions at: UAOO (KZYL-ORDA , KZ) observed 1200 UTC 23 January 2019
Temperature: 1.0°C (34°F)
Dewpoint: -5.0°C (23°F) [RH = 64%]
Pressure (altimeter): 30.24 inches Hg (1024.0 mb)
Winds: calm
Visibility: 6 or more miles (10+ km)
Ceiling: 4000 feet AGL
Clouds: broken clouds at 4000 feet AGL
Weather: no significant weather observed at this time

Forecast for: UAOO (KZYL-ORDA , KZ)
Text: TAF UAOO 231100Z 2312/2321 VRB01MPS 9999 SCT040 BKN100
Forecast period: 1200 to 2100 UTC 23 January 2019
Forecast type: FROM: standard forecast or significant change
Winds: variable direction winds at 2 MPH (2 knots; 1.0 m/s)
Visibility: 6 or more miles 10+ km)
Ceiling: 10000 feet AGL
Clouds: scattered clouds at 4000 feet AGL
broken clouds at 10000 feet AGL
Weather: no significant weather forecast for this period

 AIRPORT MAP

 RUNWAY INFORMATION

 AIRPORT FREQUENCIES

 AIRPORT NEAR NAVIGATION AIDS



2018 Air Astana Virtual Airline